sensor_id;sensor_type;location;lat;lon;timestamp;temperature;humidity
32865;DHT22;19219;44.500;11.188;2023-02-02T00:02:03;2.50;99.90
32865;DHT22;19219;44.500;11.188;2023-02-02T00:04:34;2.60;99.90
32865;DHT22;19219;44.500;11.188;2023-02-02T00:07:01;2.60;99.90
32865;DHT22;19219;44.500;11.188;2023-02-02T00:09:29;2.50;99.90
32865;DHT22;19219;44.500;11.188;2023-02-02T00:11:56;2.40;99.90
32865;DHT22;19219;44.500;11.188;2023-02-02T00:14:22;2.40;99.90
32865;DHT22;19219;44.500;11.188;2023-02-02T00:16:50;2.40;99.90
32865;DHT22;19219;44.500;11.188;2023-02-02T00:19:19;2.40;99.90
32865;DHT22;19219;44.500;11.188;2023-02-02T00:21:45;2.50;99.90
32865;DHT22;19219;44.500;11.188;2023-02-02T00:24:15;2.60;99.90
32865;DHT22;19219;44.500;11.188;2023-02-02T00:26:44;2.60;99.90
32865;DHT22;19219;44.500;11.188;2023-02-02T00:29:23;2.50;99.90
32865;DHT22;19219;44.500;11.188;2023-02-02T00:31:50;2.50;99.90
32865;DHT22;19219;44.500;11.188;2023-02-02T00:34:16;2.50;99.90
32865;DHT22;19219;44.500;11.188;2023-02-02T00:36:42;2.30;99.90
32865;DHT22;19219;44.500;11.188;2023-02-02T00:39:09;2.20;99.90
32865;DHT22;19219;44.500;11.188;2023-02-02T00:41:35;2.10;99.90
32865;DHT22;19219;44.500;11.188;2023-02-02T00:44:01;2.00;99.90
32865;DHT22;19219;44.500;11.188;2023-02-02T00:46:46;1.90;99.90
32865;DHT22;19219;44.500;11.188;2023-02-02T00:49:11;1.80;99.90
32865;DHT22;19219;44.500;11.188;2023-02-02T00:51:37;1.70;99.90
32865;DHT22;19219;44.500;11.188;2023-02-02T00:54:03;1.70;99.90
32865;DHT22;19219;44.500;11.188;2023-02-02T00:56:29;1.70;99.90
32865;DHT22;19219;44.500;11.188;2023-02-02T00:58:55;1.80;99.90
32865;DHT22;19219;44.500;11.188;2023-02-02T01:01:21;1.80;99.90
32865;DHT22;19219;44.500;11.188;2023-02-02T01:03:48;1.90;99.90
32865;DHT22;19219;44.500;11.188;2023-02-02T01:06:14;1.90;99.90
32865;DHT22;19219;44.500;11.188;2023-02-02T01:08:40;1.90;99.90
32865;DHT22;19219;44.500;11.188;2023-02-02T01:11:06;1.90;99.90
32865;DHT22;19219;44.500;11.188;2023-02-02T01:13:32;1.90;99.90
32865;DHT22;19219;44.500;11.188;2023-02-02T01:15:59;1.90;99.90
32865;DHT22;19219;44.500;11.188;2023-02-02T01:18:25;1.70;99.90
32865;DHT22;19219;44.500;11.188;2023-02-02T01:21:04;1.70;99.90
32865;DHT22;19219;44.500;11.188;2023-02-02T01:23:30;1.70;99.90
32865;DHT22;19219;44.500;11.188;2023-02-02T01:25:58;1.60;99.90
32865;DHT22;19219;44.500;11.188;2023-02-02T01:28:25;1.70;99.90
32865;DHT22;19219;44.500;11.188;2023-02-02T01:30:51;1.70;99.90
32865;DHT22;19219;44.500;11.188;2023-02-02T01:33:17;1.80;99.90
32865;DHT22;19219;44.500;11.188;2023-02-02T01:35:54;1.90;99.90
32865;DHT22;19219;44.500;11.188;2023-02-02T01:38:21;2.00;99.90
32865;DHT22;19219;44.500;11.188;2023-02-02T01:40:52;1.90;99.90
32865;DHT22;19219;44.500;11.188;2023-02-02T01:45:51;1.80;99.90
32865;DHT22;19219;44.500;11.188;2023-02-02T01:48:19;1.80;99.90
32865;DHT22;19219;44.500;11.188;2023-02-02T01:50:48;1.70;99.90
32865;DHT22;19219;44.500;11.188;2023-02-02T01:53:14;1.70;99.90
32865;DHT22;19219;44.500;11.188;2023-02-02T01:55:41;1.70;99.90
32865;DHT22;19219;44.500;11.188;2023-02-02T01:58:16;1.80;99.90
32865;DHT22;19219;44.500;11.188;2023-02-02T02:00:43;1.80;99.90
32865;DHT22;19219;44.500;11.188;2023-02-02T02:03:12;1.80;99.90
32865;DHT22;19219;44.500;11.188;2023-02-02T02:05:59;1.80;99.90
32865;DHT22;19219;44.500;11.188;2023-02-02T02:08:32;1.90;99.90
32865;DHT22;19219;44.500;11.188;2023-02-02T02:10:59;1.90;99.90
32865;DHT22;19219;44.500;11.188;2023-02-02T02:13:26;1.90;99.90
32865;DHT22;19219;44.500;11.188;2023-02-02T02:16:23;2.00;99.90
32865;DHT22;19219;44.500;11.188;2023-02-02T02:33:08;1.70;99.90
32865;DHT22;19219;44.500;11.188;2023-02-02T02:35:56;1.70;99.90
32865;DHT22;19219;44.500;11.188;2023-02-02T02:38:47;1.70;99.90
32865;DHT22;19219;44.500;11.188;2023-02-02T02:41:24;1.70;99.90
32865;DHT22;19219;44.500;11.188;2023-02-02T02:43:56;1.60;99.90
32865;DHT22;19219;44.500;11.188;2023-02-02T02:46:23;1.50;99.90
32865;DHT22;19219;44.500;11.188;2023-02-02T02:48:50;1.60;99.90
32865;DHT22;19219;44.500;11.188;2023-02-02T02:54:07;1.70;99.90
32865;DHT22;19219;44.500;11.188;2023-02-02T02:56:43;1.70;99.90
32865;DHT22;19219;44.500;11.188;2023-02-02T03:00:07;1.60;99.90
32865;DHT22;19219;44.500;11.188;2023-02-02T03:02:23;1.60;99.90
32865;DHT22;19219;44.500;11.188;2023-02-02T03:07:41;1.70;99.90
32865;DHT22;19219;44.500;11.188;2023-02-02T03:10:12;1.60;99.90
32865;DHT22;19219;44.500;11.188;2023-02-02T03:12:49;1.60;99.90
32865;DHT22;19219;44.500;11.188;2023-02-02T03:15:16;1.60;99.90
32865;DHT22;19219;44.500;11.188;2023-02-02T03:17:42;1.70;99.90
32865;DHT22;19219;44.500;11.188;2023-02-02T03:20:10;1.80;99.90
32865;DHT22;19219;44.500;11.188;2023-02-02T03:22:36;1.90;99.90
32865;DHT22;19219;44.500;11.188;2023-02-02T03:25:01;1.90;99.90
32865;DHT22;19219;44.500;11.188;2023-02-02T03:27:27;1.80;99.90
32865;DHT22;19219;44.500;11.188;2023-02-02T03:29:54;1.60;99.90
32865;DHT22;19219;44.500;11.188;2023-02-02T03:32:20;1.30;99.90
32865;DHT22;19219;44.500;11.188;2023-02-02T03:34:45;1.20;99.90
32865;DHT22;19219;44.500;11.188;2023-02-02T03:37:11;1.00;99.90
32865;DHT22;19219;44.500;11.188;2023-02-02T03:39:37;1.00;99.90
32865;DHT22;19219;44.500;11.188;2023-02-02T03:42:02;0.90;99.90
32865;DHT22;19219;44.500;11.188;2023-02-02T03:44:28;0.90;99.90
32865;DHT22;19219;44.500;11.188;2023-02-02T03:46:54;0.90;99.90
32865;DHT22;19219;44.500;11.188;2023-02-02T03:49:20;0.90;99.90
32865;DHT22;19219;44.500;11.188;2023-02-02T03:51:46;0.90;99.90
32865;DHT22;19219;44.500;11.188;2023-02-02T03:54:12;0.90;99.90
32865;DHT22;19219;44.500;11.188;2023-02-02T03:56:39;1.00;99.90
32865;DHT22;19219;44.500;11.188;2023-02-02T03:59:05;1.10;99.90
32865;DHT22;19219;44.500;11.188;2023-02-02T04:01:30;1.10;99.90
32865;DHT22;19219;44.500;11.188;2023-02-02T04:03:57;1.10;99.90
32865;DHT22;19219;44.500;11.188;2023-02-02T04:06:24;1.10;99.90
32865;DHT22;19219;44.500;11.188;2023-02-02T04:08:50;1.10;99.90
32865;DHT22;19219;44.500;11.188;2023-02-02T04:11:16;1.10;99.90
32865;DHT22;19219;44.500;11.188;2023-02-02T04:13:42;1.20;99.90
32865;DHT22;19219;44.500;11.188;2023-02-02T04:16:09;1.30;99.90
32865;DHT22;19219;44.500;11.188;2023-02-02T04:18:35;1.40;99.90
32865;DHT22;19219;44.500;11.188;2023-02-02T04:21:04;1.40;99.90
32865;DHT22;19219;44.500;11.188;2023-02-02T04:23:31;1.30;99.90
32865;DHT22;19219;44.500;11.188;2023-02-02T04:25:57;1.20;99.90
32865;DHT22;19219;44.500;11.188;2023-02-02T04:28:23;1.20;99.90
32865;DHT22;19219;44.500;11.188;2023-02-02T04:30:50;1.20;99.90
32865;DHT22;19219;44.500;11.188;2023-02-02T04:33:16;1.30;99.90
32865;DHT22;19219;44.500;11.188;2023-02-02T04:35:42;1.20;99.90
32865;DHT22;19219;44.500;11.188;2023-02-02T04:38:08;1.40;99.90
32865;DHT22;19219;44.500;11.188;2023-02-02T04:40:37;1.30;99.90
32865;DHT22;19219;44.500;11.188;2023-02-02T04:43:04;1.40;99.90
32865;DHT22;19219;44.500;11.188;2023-02-02T04:45:30;1.50;99.90
32865;DHT22;19219;44.500;11.188;2023-02-02T04:47:55;1.50;99.90
32865;DHT22;19219;44.500;11.188;2023-02-02T04:50:21;1.50;99.90
32865;DHT22;19219;44.500;11.188;2023-02-02T04:52:46;1.50;99.90
32865;DHT22;19219;44.500;11.188;2023-02-02T04:55:12;1.30;99.90
32865;DHT22;19219;44.500;11.188;2023-02-02T04:57:38;1.30;99.90
32865;DHT22;19219;44.500;11.188;2023-02-02T05:00:05;1.40;99.90
32865;DHT22;19219;44.500;11.188;2023-02-02T05:02:33;1.50;99.90
32865;DHT22;19219;44.500;11.188;2023-02-02T05:04:59;1.60;99.90
32865;DHT22;19219;44.500;11.188;2023-02-02T05:07:25;1.50;99.90
32865;DHT22;19219;44.500;11.188;2023-02-02T05:09:50;1.50;99.90
32865;DHT22;19219;44.500;11.188;2023-02-02T05:12:16;1.50;99.90
32865;DHT22;19219;44.500;11.188;2023-02-02T05:14:41;1.50;99.90
32865;DHT22;19219;44.500;11.188;2023-02-02T05:17:07;1.30;99.90
32865;DHT22;19219;44.500;11.188;2023-02-02T05:19:33;1.30;99.90
32865;DHT22;19219;44.500;11.188;2023-02-02T05:21:58;1.50;99.90
32865;DHT22;19219;44.500;11.188;2023-02-02T05:24:24;1.60;99.90
32865;DHT22;19219;44.500;11.188;2023-02-02T05:26:50;1.50;99.90
32865;DHT22;19219;44.500;11.188;2023-02-02T05:29:17;1.30;99.90
32865;DHT22;19219;44.500;11.188;2023-02-02T05:31:43;1.00;99.90
32865;DHT22;19219;44.500;11.188;2023-02-02T05:34:08;0.80;99.90
32865;DHT22;19219;44.500;11.188;2023-02-02T05:36:35;0.80;99.90
32865;DHT22;19219;44.500;11.188;2023-02-02T05:39:01;0.80;99.90
32865;DHT22;19219;44.500;11.188;2023-02-02T05:41:27;0.90;99.90
32865;DHT22;19219;44.500;11.188;2023-02-02T05:43:52;0.80;99.90
32865;DHT22;19219;44.500;11.188;2023-02-02T05:46:18;0.80;99.90
32865;DHT22;19219;44.500;11.188;2023-02-02T05:48:44;0.80;99.90
32865;DHT22;19219;44.500;11.188;2023-02-02T05:51:28;0.90;99.90
32865;DHT22;19219;44.500;11.188;2023-02-02T05:53:56;0.90;99.90
32865;DHT22;19219;44.500;11.188;2023-02-02T05:56:21;1.10;99.90
32865;DHT22;19219;44.500;11.188;2023-02-02T05:58:47;1.10;99.90
32865;DHT22;19219;44.500;11.188;2023-02-02T06:01:15;1.10;99.90
32865;DHT22;19219;44.500;11.188;2023-02-02T06:03:41;1.20;99.90
32865;DHT22;19219;44.500;11.188;2023-02-02T06:06:07;1.30;99.90
32865;DHT22;19219;44.500;11.188;2023-02-02T06:08:33;1.50;99.90
32865;DHT22;19219;44.500;11.188;2023-02-02T06:10:58;1.60;99.90
32865;DHT22;19219;44.500;11.188;2023-02-02T06:13:24;1.60;99.90
32865;DHT22;19219;44.500;11.188;2023-02-02T06:15:49;1.70;99.90
32865;DHT22;19219;44.500;11.188;2023-02-02T06:18:15;1.70;99.90
32865;DHT22;19219;44.500;11.188;2023-02-02T06:20:41;1.60;99.90
32865;DHT22;19219;44.500;11.188;2023-02-02T06:23:06;1.50;99.90
32865;DHT22;19219;44.500;11.188;2023-02-02T06:25:32;1.50;99.90
32865;DHT22;19219;44.500;11.188;2023-02-02T06:27:59;1.50;99.90
32865;DHT22;19219;44.500;11.188;2023-02-02T06:30:26;1.40;99.90
32865;DHT22;19219;44.500;11.188;2023-02-02T06:32:52;1.30;99.90
32865;DHT22;19219;44.500;11.188;2023-02-02T06:35:18;1.30;99.90
32865;DHT22;19219;44.500;11.188;2023-02-02T06:37:43;1.20;99.90
32865;DHT22;19219;44.500;11.188;2023-02-02T06:40:10;1.20;99.90
32865;DHT22;19219;44.500;11.188;2023-02-02T06:42:36;1.00;99.90
32865;DHT22;19219;44.500;11.188;2023-02-02T06:45:03;1.00;99.90
32865;DHT22;19219;44.500;11.188;2023-02-02T06:47:30;0.90;99.90
32865;DHT22;19219;44.500;11.188;2023-02-02T06:49:56;0.90;99.90
32865;DHT22;19219;44.500;11.188;2023-02-02T06:52:22;0.90;99.90
32865;DHT22;19219;44.500;11.188;2023-02-02T06:54:47;0.90;99.90
32865;DHT22;19219;44.500;11.188;2023-02-02T06:57:13;1.00;99.90
32865;DHT22;19219;44.500;11.188;2023-02-02T06:59:38;1.20;99.90
32865;DHT22;19219;44.500;11.188;2023-02-02T07:02:10;1.20;99.90
32865;DHT22;19219;44.500;11.188;2023-02-02T07:04:36;1.30;99.90
32865;DHT22;19219;44.500;11.188;2023-02-02T07:07:01;1.30;99.90
32865;DHT22;19219;44.500;11.188;2023-02-02T07:09:27;1.30;99.90
32865;DHT22;19219;44.500;11.188;2023-02-02T07:11:52;1.40;99.90
32865;DHT22;19219;44.500;11.188;2023-02-02T07:14:18;1.50;99.90
32865;DHT22;19219;44.500;11.188;2023-02-02T07:16:44;1.50;99.90
32865;DHT22;19219;44.500;11.188;2023-02-02T07:19:09;1.60;99.90
32865;DHT22;19219;44.500;11.188;2023-02-02T07:21:35;1.90;99.90
32865;DHT22;19219;44.500;11.188;2023-02-02T07:24:01;1.70;99.90
32865;DHT22;19219;44.500;11.188;2023-02-02T07:26:27;1.80;99.90
32865;DHT22;19219;44.500;11.188;2023-02-02T07:28:53;1.80;99.90
32865;DHT22;19219;44.500;11.188;2023-02-02T07:31:21;1.90;99.90
32865;DHT22;19219;44.500;11.188;2023-02-02T07:33:48;2.00;99.90
32865;DHT22;19219;44.500;11.188;2023-02-02T07:36:16;2.10;99.90
32865;DHT22;19219;44.500;11.188;2023-02-02T07:38:43;2.20;99.90
32865;DHT22;19219;44.500;11.188;2023-02-02T07:41:09;2.40;99.90
32865;DHT22;19219;44.500;11.188;2023-02-02T07:43:35;2.60;99.90
32865;DHT22;19219;44.500;11.188;2023-02-02T07:46:03;2.70;99.90
32865;DHT22;19219;44.500;11.188;2023-02-02T07:48:29;2.90;99.90
32865;DHT22;19219;44.500;11.188;2023-02-02T07:51:02;3.00;99.90
32865;DHT22;19219;44.500;11.188;2023-02-02T07:53:29;3.20;99.90
32865;DHT22;19219;44.500;11.188;2023-02-02T07:56:16;3.30;99.90
32865;DHT22;19219;44.500;11.188;2023-02-02T07:58:42;3.40;99.90
32865;DHT22;19219;44.500;11.188;2023-02-02T08:01:10;3.60;99.90
32865;DHT22;19219;44.500;11.188;2023-02-02T08:03:36;3.80;99.90
32865;DHT22;19219;44.500;11.188;2023-02-02T08:06:12;4.10;99.90
32865;DHT22;19219;44.500;11.188;2023-02-02T08:08:39;4.30;99.90
32865;DHT22;19219;44.500;11.188;2023-02-02T08:11:08;4.50;99.90
32865;DHT22;19219;44.500;11.188;2023-02-02T08:13:34;4.70;99.90
32865;DHT22;19219;44.500;11.188;2023-02-02T08:16:00;5.20;99.90
32865;DHT22;19219;44.500;11.188;2023-02-02T08:18:25;6.60;99.90
32865;DHT22;19219;44.500;11.188;2023-02-02T08:20:51;9.00;99.90
32865;DHT22;19219;44.500;11.188;2023-02-02T08:23:18;11.50;99.90
32865;DHT22;19219;44.500;11.188;2023-02-02T08:25:48;13.30;99.90
32865;DHT22;19219;44.500;11.188;2023-02-02T08:28:15;14.70;98.80
32865;DHT22;19219;44.500;11.188;2023-02-02T08:30:41;16.10;92.80
32865;DHT22;19219;44.500;11.188;2023-02-02T08:33:06;16.90;91.90
32865;DHT22;19219;44.500;11.188;2023-02-02T08:35:32;17.90;81.10
32865;DHT22;19219;44.500;11.188;2023-02-02T08:37:58;18.00;73.20
32865;DHT22;19219;44.500;11.188;2023-02-02T08:40:27;18.80;70.60
32865;DHT22;19219;44.500;11.188;2023-02-02T08:42:53;19.10;67.20
32865;DHT22;19219;44.500;11.188;2023-02-02T08:45:20;19.90;65.80
32865;DHT22;19219;44.500;11.188;2023-02-02T08:47:45;20.50;59.90
32865;DHT22;19219;44.500;11.188;2023-02-02T08:50:11;20.60;57.40
32865;DHT22;19219;44.500;11.188;2023-02-02T08:52:37;21.10;54.60
32865;DHT22;19219;44.500;11.188;2023-02-02T08:55:03;21.30;51.80
32865;DHT22;19219;44.500;11.188;2023-02-02T08:57:28;21.90;50.00
32865;DHT22;19219;44.500;11.188;2023-02-02T08:59:57;21.60;49.80
32865;DHT22;19219;44.500;11.188;2023-02-02T09:02:23;21.40;49.20
32865;DHT22;19219;44.500;11.188;2023-02-02T09:04:48;22.20;47.90
32865;DHT22;19219;44.500;11.188;2023-02-02T09:07:14;22.30;47.40
32865;DHT22;19219;44.500;11.188;2023-02-02T09:09:39;22.30;46.90
32865;DHT22;19219;44.500;11.188;2023-02-02T09:12:05;22.80;47.10
32865;DHT22;19219;44.500;11.188;2023-02-02T09:14:31;23.40;45.70
32865;DHT22;19219;44.500;11.188;2023-02-02T09:16:57;23.80;45.80
32865;DHT22;19219;44.500;11.188;2023-02-02T09:19:22;24.70;45.50
32865;DHT22;19219;44.500;11.188;2023-02-02T09:21:49;24.50;44.80
32865;DHT22;19219;44.500;11.188;2023-02-02T09:24:14;23.80;44.10
32865;DHT22;19219;44.500;11.188;2023-02-02T09:26:41;23.90;44.10
32865;DHT22;19219;44.500;11.188;2023-02-02T09:29:10;24.30;44.40
32865;DHT22;19219;44.500;11.188;2023-02-02T09:31:37;24.90;43.80
32865;DHT22;19219;44.500;11.188;2023-02-02T09:34:05;24.90;42.80
32865;DHT22;19219;44.500;11.188;2023-02-02T09:36:32;24.90;43.20
32865;DHT22;19219;44.500;11.188;2023-02-02T09:38:57;24.60;43.70
32865;DHT22;19219;44.500;11.188;2023-02-02T09:49:12;25.20;43.80
32865;DHT22;19219;44.500;11.188;2023-02-02T09:51:43;24.50;44.10
32865;DHT22;19219;44.500;11.188;2023-02-02T09:54:44;25.20;43.60
32865;DHT22;19219;44.500;11.188;2023-02-02T09:57:26;25.30;42.90
32865;DHT22;19219;44.500;11.188;2023-02-02T09:59:53;25.70;42.10
32865;DHT22;19219;44.500;11.188;2023-02-02T10:02:35;26.00;42.60
32865;DHT22;19219;44.500;11.188;2023-02-02T10:05:15;26.60;41.50
32865;DHT22;19219;44.500;11.188;2023-02-02T10:07:45;26.90;40.90
32865;DHT22;19219;44.500;11.188;2023-02-02T10:10:26;27.10;39.70
32865;DHT22;19219;44.500;11.188;2023-02-02T10:18:47;28.10;37.20
32865;DHT22;19219;44.500;11.188;2023-02-02T10:21:26;27.70;37.00
32865;DHT22;19219;44.500;11.188;2023-02-02T10:23:53;28.50;36.00
32865;DHT22;19219;44.500;11.188;2023-02-02T10:26:22;29.10;35.80
32865;DHT22;19219;44.500;11.188;2023-02-02T10:34:31;28.20;33.40
32865;DHT22;19219;44.500;11.188;2023-02-02T10:37:25;27.90;33.20
32865;DHT22;19219;44.500;11.188;2023-02-02T10:45:01;26.40;32.80
32865;DHT22;19219;44.500;11.188;2023-02-02T10:47:30;26.70;31.60
32865;DHT22;19219;44.500;11.188;2023-02-02T10:50:18;26.60;32.00
32865;DHT22;19219;44.500;11.188;2023-02-02T10:52:58;27.20;32.60
32865;DHT22;19219;44.500;11.188;2023-02-02T11:00:48;25.00;30.70
32865;DHT22;19219;44.500;11.188;2023-02-02T11:03:17;24.80;31.40
32865;DHT22;19219;44.500;11.188;2023-02-02T11:05:44;24.00;30.40
32865;DHT22;19219;44.500;11.188;2023-02-02T11:16:32;21.30;32.50
32865;DHT22;19219;44.500;11.188;2023-02-02T11:18:58;20.20;33.10
32865;DHT22;19219;44.500;11.188;2023-02-02T11:26:24;18.20;36.50
32865;DHT22;19219;44.500;11.188;2023-02-02T11:28:53;18.20;37.20
32865;DHT22;19219;44.500;11.188;2023-02-02T11:31:34;18.00;37.80
32865;DHT22;19219;44.500;11.188;2023-02-02T11:36:34;17.70;37.10
32865;DHT22;19219;44.500;11.188;2023-02-02T11:39:19;17.80;38.50
32865;DHT22;19219;44.500;11.188;2023-02-02T11:41:45;17.90;37.10
32865;DHT22;19219;44.500;11.188;2023-02-02T11:44:24;17.70;37.30
32865;DHT22;19219;44.500;11.188;2023-02-02T11:46:50;17.60;36.00
32865;DHT22;19219;44.500;11.188;2023-02-02T11:49:19;17.30;35.60
32865;DHT22;19219;44.500;11.188;2023-02-02T11:51:57;17.20;36.00
32865;DHT22;19219;44.500;11.188;2023-02-02T11:54:31;17.20;35.20
32865;DHT22;19219;44.500;11.188;2023-02-02T11:57:06;17.10;35.30
32865;DHT22;19219;44.500;11.188;2023-02-02T11:59:39;17.00;35.80
32865;DHT22;19219;44.500;11.188;2023-02-02T12:04:39;17.00;35.50
32865;DHT22;19219;44.500;11.188;2023-02-02T12:07:25;17.00;35.20
32865;DHT22;19219;44.500;11.188;2023-02-02T12:09:52;16.90;35.60
32865;DHT22;19219;44.500;11.188;2023-02-02T12:18:16;16.90;35.60
32865;DHT22;19219;44.500;11.188;2023-02-02T12:23:41;16.90;36.00
32865;DHT22;19219;44.500;11.188;2023-02-02T12:26:22;17.00;37.10
32865;DHT22;19219;44.500;11.188;2023-02-02T12:29:11;17.00;34.90
32865;DHT22;19219;44.500;11.188;2023-02-02T12:32:08;16.80;35.10
32865;DHT22;19219;44.500;11.188;2023-02-02T12:35:16;16.80;35.40
32865;DHT22;19219;44.500;11.188;2023-02-02T12:45:44;16.70;35.60
32865;DHT22;19219;44.500;11.188;2023-02-02T12:57:08;16.60;36.70
32865;DHT22;19219;44.500;11.188;2023-02-02T13:05:03;16.50;38.10
32865;DHT22;19219;44.500;11.188;2023-02-02T13:07:39;16.50;38.20
32865;DHT22;19219;44.500;11.188;2023-02-02T13:10:38;16.40;37.70
32865;DHT22;19219;44.500;11.188;2023-02-02T13:13:34;16.50;37.70
32865;DHT22;19219;44.500;11.188;2023-02-02T13:16:20;16.40;37.40
32865;DHT22;19219;44.500;11.188;2023-02-02T13:19:00;16.50;38.90
32865;DHT22;19219;44.500;11.188;2023-02-02T13:21:27;16.50;38.70
32865;DHT22;19219;44.500;11.188;2023-02-02T13:23:59;16.50;38.00
32865;DHT22;19219;44.500;11.188;2023-02-02T13:26:36;16.60;38.00
32865;DHT22;19219;44.500;11.188;2023-02-02T13:29:21;16.60;38.00
32865;DHT22;19219;44.500;11.188;2023-02-02T13:32:06;16.70;38.00
32865;DHT22;19219;44.500;11.188;2023-02-02T13:37:48;16.80;37.50
32865;DHT22;19219;44.500;11.188;2023-02-02T13:45:42;17.00;36.00
32865;DHT22;19219;44.500;11.188;2023-02-02T13:59:03;17.00;35.80
32865;DHT22;19219;44.500;11.188;2023-02-02T14:01:33;17.00;35.60
32865;DHT22;19219;44.500;11.188;2023-02-02T14:03:59;17.00;35.70
32865;DHT22;19219;44.500;11.188;2023-02-02T14:06:26;17.10;35.80
32865;DHT22;19219;44.500;11.188;2023-02-02T14:09:00;17.00;35.40
32865;DHT22;19219;44.500;11.188;2023-02-02T14:11:31;16.90;34.70
32865;DHT22;19219;44.500;11.188;2023-02-02T14:14:15;17.00;35.30
32865;DHT22;19219;44.500;11.188;2023-02-02T14:24:42;17.10;36.40
32865;DHT22;19219;44.500;11.188;2023-02-02T14:29:36;17.10;36.10
32865;DHT22;19219;44.500;11.188;2023-02-02T14:40:22;17.20;36.80
32865;DHT22;19219;44.500;11.188;2023-02-02T14:45:41;17.10;36.70
32865;DHT22;19219;44.500;11.188;2023-02-02T14:48:18;17.10;36.30
32865;DHT22;19219;44.500;11.188;2023-02-02T14:50:54;17.00;36.20
32865;DHT22;19219;44.500;11.188;2023-02-02T14:53:35;17.00;36.50
32865;DHT22;19219;44.500;11.188;2023-02-02T14:58:33;17.00;36.90
32865;DHT22;19219;44.500;11.188;2023-02-02T15:01:23;17.00;36.80
32865;DHT22;19219;44.500;11.188;2023-02-02T15:06:38;17.00;37.50
32865;DHT22;19219;44.500;11.188;2023-02-02T15:25:24;16.80;38.10
32865;DHT22;19219;44.500;11.188;2023-02-02T15:28:18;16.60;38.20
32865;DHT22;19219;44.500;11.188;2023-02-02T15:30:50;16.50;37.40
32865;DHT22;19219;44.500;11.188;2023-02-02T15:33:30;16.40;37.80
32865;DHT22;19219;44.500;11.188;2023-02-02T15:36:04;16.30;38.00
32865;DHT22;19219;44.500;11.188;2023-02-02T15:38:36;16.30;38.40
32865;DHT22;19219;44.500;11.188;2023-02-02T15:41:19;16.20;38.50
32865;DHT22;19219;44.500;11.188;2023-02-02T15:43:45;16.20;38.80
32865;DHT22;19219;44.500;11.188;2023-02-02T15:46:14;16.10;38.80
32865;DHT22;19219;44.500;11.188;2023-02-02T15:52:14;16.00;39.40
32865;DHT22;19219;44.500;11.188;2023-02-02T15:54:58;15.90;39.70
32865;DHT22;19219;44.500;11.188;2023-02-02T15:57:33;15.80;40.00
32865;DHT22;19219;44.500;11.188;2023-02-02T16:00:02;15.60;41.20
32865;DHT22;19219;44.500;11.188;2023-02-02T16:02:42;15.40;43.00
32865;DHT22;19219;44.500;11.188;2023-02-02T16:08:03;14.50;48.00
32865;DHT22;19219;44.500;11.188;2023-02-02T16:10:31;14.10;50.60
32865;DHT22;19219;44.500;11.188;2023-02-02T16:12:57;13.60;53.10
32865;DHT22;19219;44.500;11.188;2023-02-02T16:15:25;13.30;55.70
32865;DHT22;19219;44.500;11.188;2023-02-02T16:18:09;13.00;57.10
32865;DHT22;19219;44.500;11.188;2023-02-02T16:20:38;12.70;59.40
32865;DHT22;19219;44.500;11.188;2023-02-02T16:23:08;12.40;61.70
32865;DHT22;19219;44.500;11.188;2023-02-02T16:25:45;12.20;63.30
32865;DHT22;19219;44.500;11.188;2023-02-02T16:28:15;12.00;64.40
32865;DHT22;19219;44.500;11.188;2023-02-02T16:30:41;11.70;66.60
32865;DHT22;19219;44.500;11.188;2023-02-02T16:35:51;11.10;70.30
32865;DHT22;19219;44.500;11.188;2023-02-02T16:40:42;10.80;72.60
32865;DHT22;19219;44.500;11.188;2023-02-02T16:43:25;10.70;74.60
32865;DHT22;19219;44.500;11.188;2023-02-02T16:46:03;10.40;76.50
32865;DHT22;19219;44.500;11.188;2023-02-02T16:56:47;10.00;80.20
32865;DHT22;19219;44.500;11.188;2023-02-02T16:59:33;9.80;82.30
32865;DHT22;19219;44.500;11.188;2023-02-02T17:05:03;9.60;87.60
32865;DHT22;19219;44.500;11.188;2023-02-02T17:07:33;9.40;91.00
32865;DHT22;19219;44.500;11.188;2023-02-02T17:10:22;9.20;92.70
32865;DHT22;19219;44.500;11.188;2023-02-02T17:12:48;9.00;94.30
32865;DHT22;19219;44.500;11.188;2023-02-02T17:17:45;8.70;96.20
32865;DHT22;19219;44.500;11.188;2023-02-02T17:20:15;8.60;97.10
32865;DHT22;19219;44.500;11.188;2023-02-02T17:22:47;8.50;97.30
32865;DHT22;19219;44.500;11.188;2023-02-02T17:25:15;8.50;98.10
32865;DHT22;19219;44.500;11.188;2023-02-02T17:27:41;8.40;99.00
32865;DHT22;19219;44.500;11.188;2023-02-02T17:30:13;8.20;99.90
32865;DHT22;19219;44.500;11.188;2023-02-02T17:32:39;8.30;99.20
32865;DHT22;19219;44.500;11.188;2023-02-02T17:37:41;8.20;99.90
32865;DHT22;19219;44.500;11.188;2023-02-02T17:40:11;8.10;99.90
32865;DHT22;19219;44.500;11.188;2023-02-02T17:42:37;8.10;99.90
32865;DHT22;19219;44.500;11.188;2023-02-02T17:45:04;8.10;99.60
32865;DHT22;19219;44.500;11.188;2023-02-02T17:47:34;8.30;99.60
32865;DHT22;19219;44.500;11.188;2023-02-02T17:50:01;8.30;99.70
32865;DHT22;19219;44.500;11.188;2023-02-02T17:52:27;8.30;99.90
32865;DHT22;19219;44.500;11.188;2023-02-02T17:54:53;8.10;99.90
32865;DHT22;19219;44.500;11.188;2023-02-02T17:57:18;8.00;99.90
32865;DHT22;19219;44.500;11.188;2023-02-02T17:59:44;8.00;99.90
32865;DHT22;19219;44.500;11.188;2023-02-02T18:02:12;7.90;99.90
32865;DHT22;19219;44.500;11.188;2023-02-02T18:04:39;7.80;99.90
32865;DHT22;19219;44.500;11.188;2023-02-02T18:07:05;7.70;99.90
32865;DHT22;19219;44.500;11.188;2023-02-02T18:09:32;7.70;99.90
32865;DHT22;19219;44.500;11.188;2023-02-02T18:11:58;7.70;99.90
32865;DHT22;19219;44.500;11.188;2023-02-02T18:14:24;7.60;99.90
32865;DHT22;19219;44.500;11.188;2023-02-02T18:16:50;7.50;99.90
32865;DHT22;19219;44.500;11.188;2023-02-02T18:19:16;7.50;99.90
32865;DHT22;19219;44.500;11.188;2023-02-02T18:21:41;7.40;99.90
32865;DHT22;19219;44.500;11.188;2023-02-02T18:24:07;7.50;99.90
32865;DHT22;19219;44.500;11.188;2023-02-02T18:26:32;7.50;99.90
32865;DHT22;19219;44.500;11.188;2023-02-02T18:28:59;7.40;99.90
32865;DHT22;19219;44.500;11.188;2023-02-02T18:31:25;7.20;99.90
32865;DHT22;19219;44.500;11.188;2023-02-02T18:33:51;7.00;99.90
32865;DHT22;19219;44.500;11.188;2023-02-02T18:36:19;6.90;99.90
32865;DHT22;19219;44.500;11.188;2023-02-02T18:38:47;6.70;99.90
32865;DHT22;19219;44.500;11.188;2023-02-02T18:41:14;6.70;99.90
32865;DHT22;19219;44.500;11.188;2023-02-02T18:43:40;6.60;99.90
32865;DHT22;19219;44.500;11.188;2023-02-02T18:46:08;6.40;99.90
32865;DHT22;19219;44.500;11.188;2023-02-02T18:48:35;6.50;99.90
32865;DHT22;19219;44.500;11.188;2023-02-02T18:51:05;6.50;99.90
32865;DHT22;19219;44.500;11.188;2023-02-02T18:53:31;6.50;99.90